Time;durP1;ratioP1;P1;durP2;ratioP2;P2;SDS_P1;SDS_P2;PMS_P1;PMS_P2;Temp;Humidity;BMP_temperature;BMP_pressure;BME280_temperature;BME280_humidity;BME280_pressure;Samples;Min_cycle;Max_cycle;Signal;HPM_P1;HPM_P2
2023/04/30 00:00:14;;;;;;;;;;;;;;;7.86;44.89;97319.00;6297967;28;19992;-74
2023/04/30 00:03:18;;;;;;;;;;;;;;;7.84;44.69;97320.81;6297953;28;20296;-74
2023/04/30 00:06:21;;;;;;;;;;;;;;;7.81;44.23;97323.59;6280017;28;19925;-74
2023/04/30 00:09:25;;;;;;;;;;;;;;;7.79;44.99;97312.34;6297906;28;20393;-74
2023/04/30 00:12:27;;;;;;;;;;;;;;;7.75;44.36;97316.03;6297826;28;19920;-74
2023/04/30 00:15:31;;;;;;;;;;;;;;;7.70;44.42;97313.63;6279269;28;20408;-73
2023/04/30 00:18:34;;;;;;;;;;;;;;;7.64;44.88;97317.38;6297679;28;20445;-74
2023/04/30 00:21:38;;;;;;;;;;;;;;;7.57;44.72;97313.34;6297236;28;19920;-73
2023/04/30 00:24:41;;;;;;;;;;;;;;;7.53;44.91;97309.16;6279410;28;20416;-74
2023/04/30 00:27:44;;;;;;;;;;;;;;;7.48;44.62;97300.66;6297406;28;19920;-74
2023/04/30 00:30:48;;;;;;;;;;;;;;;7.52;45.08;97312.69;6279207;28;20011;-74
2023/04/30 00:33:51;;;;;;;;;;;;;;;7.55;45.18;97299.44;6296956;28;19926;-73
2023/04/30 00:36:55;;;;;;;;;;;;;;;7.56;45.07;97295.94;6296751;28;19980;-74
2023/04/30 00:39:58;;;;;;;;;;;;;;;7.62;44.48;97311.34;6297205;28;20007;-75
2023/04/30 00:43:02;;;;;;;;;;;;;;;7.66;44.99;97312.06;6296863;28;19926;-74
2023/04/30 00:46:05;;;;;;;;;;;;;;;7.69;45.57;97316.31;6296735;28;19931;-73
2023/04/30 00:49:09;;;;;;;;;;;;;;;7.72;44.74;97314.38;6278937;28;20458;-75
2023/04/30 00:52:12;;;;;;;;;;;;;;;7.73;44.28;97317.84;6296633;28;20447;-73
2023/04/30 00:55:15;;;;;;;;;;;;;;;7.70;44.27;97313.63;6296512;28;20398;-73
2023/04/30 00:58:19;;;;;;;;;;;;;;;7.68;45.02;97307.59;6278534;28;19942;-74
2023/04/30 01:01:23;;;;;;;;;;;;;;;7.69;44.63;97322.41;6296771;28;20010;-74
2023/04/30 01:04:28;;;;;;;;;;;;;;;7.75;45.32;97321.25;6278697;28;19926;-74
2023/04/30 01:07:32;;;;;;;;;;;;;;;7.82;45.05;97328.78;6296433;28;20338;-74
2023/04/30 01:10:55;;;;;;;;;;;;;;;7.86;44.36;97325.06;6296298;28;19920;-74
2023/04/30 01:13:59;;;;;;;;;;;;;;;7.89;44.84;97324.09;6280046;28;20297;-74
2023/04/30 01:17:01;;;;;;;;;;;;;;;7.91;44.01;97318.78;6296158;28;20041;-74
2023/04/30 01:20:06;;;;;;;;;;;;;;;7.93;44.32;97315.19;6295980;28;20301;-74
2023/04/30 01:23:28;;;;;;;;;;;;;;;8.00;43.98;97313.09;6296301;28;20022;-74
2023/04/30 01:26:46;;;;;;;;;;;;;;;8.09;44.04;97321.38;6296036;28;20019;-73
2023/04/30 01:29:49;;;;;;;;;;;;;;;8.20;43.60;97327.88;6296063;28;19920;-73
2023/04/30 01:32:53;;;;;;;;;;;;;;;8.30;43.61;97323.91;6295855;28;19930;-73
2023/04/30 01:36:08;;;;;;;;;;;;;;;8.38;43.32;97321.75;6295332;28;19926;-74
2023/04/30 01:39:30;;;;;;;;;;;;;;;8.43;43.18;97340.75;6295805;28;19927;-74
2023/04/30 01:42:34;;;;;;;;;;;;;;;8.47;43.46;97339.69;6295271;28;20308;-74
2023/04/30 01:45:46;;;;;;;;;;;;;;;8.52;43.15;97342.06;6295615;28;19921;-73
2023/04/30 01:49:09;;;;;;;;;;;;;;;8.59;42.96;97342.63;6277712;28;20301;-75
2023/04/30 01:52:27;;;;;;;;;;;;;;;8.72;43.09;97343.72;6277513;28;19920;-74
2023/04/30 01:55:37;;;;;;;;;;;;;;;8.82;42.83;97341.47;6276935;28;19967;-74
2023/04/30 01:58:40;;;;;;;;;;;;;;;8.89;42.44;97343.72;6277454;28;20006;-74
2023/04/30 02:01:44;;;;;;;;;;;;;;;9.01;42.10;97349.28;6295312;28;20403;-75
2023/04/30 02:04:47;;;;;;;;;;;;;;;9.13;41.90;97356.53;6276894;28;19927;-75
2023/04/30 02:07:49;;;;;;;;;;;;;;;9.22;41.71;97367.38;6277418;28;20015;-73
2023/04/30 02:10:54;;;;;;;;;;;;;;;9.34;41.31;97365.94;6294864;28;19920;-74
2023/04/30 02:13:57;;;;;;;;;;;;;;;9.46;41.01;97374.09;6294824;28;19973;-73
2023/04/30 02:17:00;;;;;;;;;;;;;;;9.55;41.13;97369.19;6295084;28;19920;-73
2023/04/30 02:20:04;;;;;;;;;;;;;;;9.74;41.10;97371.72;6294888;28;20015;-74
2023/04/30 02:23:08;;;;;;;;;;;;;;;9.78;41.06;97375.84;6295278;28;19927;-74
2023/04/30 02:26:12;;;;;;;;;;;;;;;9.83;41.22;97373.84;6294727;28;19926;-74
2023/04/30 02:29:16;;;;;;;;;;;;;;;9.90;40.76;97380.44;6294842;28;20014;-75
2023/04/30 02:32:20;;;;;;;;;;;;;;;10.02;40.96;97392.09;6294815;28;20011;-73
2023/04/30 02:35:24;;;;;;;;;;;;;;;10.12;40.98;97389.81;6294814;28;19966;-73
2023/04/30 02:38:28;;;;;;;;;;;;;;;10.20;40.79;97402.53;6276594;28;20007;-74
2023/04/30 02:41:31;;;;;;;;;;;;;;;10.49;40.60;97414.09;6294203;28;19926;-74
2023/04/30 02:44:34;;;;;;;;;;;;;;;10.80;39.40;97413.22;6294477;28;19942;-75
2023/04/30 02:47:38;;;;;;;;;;;;;;;10.84;39.06;97413.88;6295328;28;19928;-74
2023/04/30 02:50:41;;;;;;;;;;;;;;;10.74;39.11;97417.06;6299298;28;19932;-74
2023/04/30 02:53:45;;;;;;;;;;;;;;;10.70;39.14;97418.19;6299380;28;19920;-75
2023/04/30 02:56:48;;;;;;;;;;;;;;;10.93;39.03;97416.84;6281416;28;19970;-75
2023/04/30 02:59:53;;;;;;;;;;;;;;;10.93;39.09;97413.38;6299342;28;19920;-74
2023/04/30 03:02:56;;;;;;;;;;;;;;;11.25;38.88;97403.59;6299222;28;19920;-75
2023/04/30 03:06:02;;;;;;;;;;;;;;;11.31;38.75;97402.38;6299268;28;19920;-75
2023/04/30 03:09:05;;;;;;;;;;;;;;;11.27;38.68;97400.88;6299295;28;19928;-75
2023/04/30 03:12:10;;;;;;;;;;;;;;;11.39;38.66;97405.41;6299072;28;19920;-75
2023/04/30 03:15:12;;;;;;;;;;;;;;;11.58;38.42;97408.63;6298885;28;19927;-75
2023/04/30 03:18:17;;;;;;;;;;;;;;;11.79;38.01;97418.81;6280854;28;20286;-75
2023/04/30 03:21:20;;;;;;;;;;;;;;;11.81;38.03;97417.78;6298757;28;19947;-74
2023/04/30 03:24:25;;;;;;;;;;;;;;;11.92;37.51;97409.25;6298518;28;19927;-74
2023/04/30 03:27:27;;;;;;;;;;;;;;;12.08;36.98;97412.59;6298723;28;19920;-75
2023/04/30 03:30:32;;;;;;;;;;;;;;;12.11;36.97;97415.06;6298580;28;19931;-75
2023/04/30 03:33:36;;;;;;;;;;;;;;;12.13;37.11;97418.44;6298708;28;20009;-75
2023/04/30 03:36:39;;;;;;;;;;;;;;;12.26;37.18;97418.56;6298427;28;20013;-74
2023/04/30 03:39:43;;;;;;;;;;;;;;;12.54;36.80;97433.47;6298291;28;19927;-75
2023/04/30 03:42:46;;;;;;;;;;;;;;;12.52;36.50;97431.88;6264093;28;20240;-74
2023/04/30 03:45:51;;;;;;;;;;;;;;;12.71;36.40;97420.97;6279513;28;20013;-74
2023/04/30 03:48:55;;;;;;;;;;;;;;;12.93;35.93;97421.25;6280784;28;19920;-74
2023/04/30 03:51:58;;;;;;;;;;;;;;;12.97;36.04;97408.72;6298054;28;19927;-73
2023/04/30 03:55:04;;;;;;;;;;;;;;;12.81;36.28;97414.16;6298024;28;20385;-76
2023/04/30 03:58:07;;;;;;;;;;;;;;;13.10;36.23;97416.66;6297835;28;19920;-74
2023/04/30 04:01:11;;;;;;;;;;;;;;;13.18;35.71;97422.28;6279551;28;19920;-76
2023/04/30 04:04:13;;;;;;;;;;;;;;;13.26;35.61;97412.09;6280152;28;20085;-74
2023/04/30 04:07:17;;;;;;;;;;;;;;;13.20;35.79;97404.56;6298023;28;19927;-74
2023/04/30 04:10:20;;;;;;;;;;;;;;;13.51;35.55;97403.34;6280394;28;19924;-74
2023/04/30 04:13:24;;;;;;;;;;;;;;;13.73;34.79;97408.03;6297256;28;19943;-74
2023/04/30 04:16:27;;;;;;;;;;;;;;;13.93;34.42;97404.84;6297620;28;20018;-74
2023/04/30 04:19:30;;;;;;;;;;;;;;;13.85;34.50;97412.47;6297303;28;20317;-74
2023/04/30 04:22:33;;;;;;;;;;;;;;;14.07;34.34;97405.69;6279596;28;19927;-74
2023/04/30 04:25:38;;;;;;;;;;;;;;;14.29;33.94;97403.16;6297252;28;19927;-76
2023/04/30 04:28:42;;;;;;;;;;;;;;;14.46;33.44;97406.41;6297371;28;20030;-76
2023/04/30 04:31:47;;;;;;;;;;;;;;;14.72;32.81;97397.47;6297137;28;19927;-74
2023/04/30 04:34:50;;;;;;;;;;;;;;;14.85;32.49;97397.41;6279190;28;20053;-73
2023/04/30 04:37:53;;;;;;;;;;;;;;;14.86;32.40;97403.53;6297108;28;19920;-75
2023/04/30 04:40:56;;;;;;;;;;;;;;;14.76;32.68;97398.94;6278937;28;19966;-75
2023/04/30 04:44:02;;;;;;;;;;;;;;;15.03;31.81;97387.22;6296703;28;20012;-75
2023/04/30 04:47:05;;;;;;;;;;;;;;;15.41;30.78;97391.47;6296653;28;19924;-75
2023/04/30 04:50:08;;;;;;;;;;;;;;;18.39;27.43;97395.38;6296853;28;20325;-74
2023/04/30 04:53:11;;;;;;;;;;;;;;;22.18;23.75;97404.56;6296455;28;19920;-74
2023/04/30 04:56:15;;;;;;;;;;;;;;;25.09;20.37;97405.88;6296592;28;19921;-74
2023/04/30 04:59:19;;;;;;;;;;;;;;;26.92;18.42;97413.75;6277564;28;19965;-73
2023/04/30 05:02:25;;;;;;;;;;;;;;;28.62;16.81;97414.69;6296462;28;19920;-73
2023/04/30 05:05:28;;;;;;;;;;;;;;;30.55;15.47;97411.44;6296408;28;19927;-74
2023/04/30 05:08:32;;;;;;;;;;;;;;;31.89;13.54;97418.69;6296161;28;19916;-74
2023/04/30 05:11:36;;;;;;;;;;;;;;;32.08;13.82;97406.00;6277517;28;19927;-74
2023/04/30 05:14:38;;;;;;;;;;;;;;;33.05;13.64;97416.31;6295787;28;19927;-74
2023/04/30 05:17:41;;;;;;;;;;;;;;;33.82;12.24;97419.19;6295182;28;19920;-74
2023/04/30 05:20:45;;;;;;;;;;;;;;;34.22;11.98;97421.25;6295983;28;19974;-74
2023/04/30 05:23:48;;;;;;;;;;;;;;;34.92;10.81;97422.28;6294613;28;20415;-74
2023/04/30 05:26:54;;;;;;;;;;;;;;;34.54;11.36;97418.19;6295863;28;20305;-73
2023/04/30 05:29:58;;;;;;;;;;;;;;;35.45;10.91;97412.97;6294554;28;19916;-73
2023/04/30 05:33:11;;;;;;;;;;;;;;;35.65;11.38;97407.88;6295805;28;20386;-73
2023/04/30 05:36:12;;;;;;;;;;;;;;;36.35;10.39;97405.72;6294812;28;19924;-75
2023/04/30 05:39:16;;;;;;;;;;;;;;;36.64;9.68;97404.53;6295308;28;19920;-73
2023/04/30 05:42:20;;;;;;;;;;;;;;;37.11;10.21;97403.19;6295451;28;19920;-74
2023/04/30 05:45:26;;;;;;;;;;;;;;;37.84;9.46;97425.66;6295558;28;20402;-74
2023/04/30 05:48:29;;;;;;;;;;;;;;;37.63;9.85;97404.59;6294680;28;19920;-74
2023/04/30 05:51:33;;;;;;;;;;;;;;;38.06;9.31;97400.03;6295346;28;20042;-74
2023/04/30 05:54:39;;;;;;;;;;;;;;;37.79;9.32;97400.06;6295062;28;19920;-74
2023/04/30 05:57:43;;;;;;;;;;;;;;;38.04;9.31;97402.22;6295244;28;19920;-74
2023/04/30 06:00:47;;;;;;;;;;;;;;;37.64;9.28;97400.75;6293997;28;20309;-74
2023/04/30 06:03:48;;;;;;;;;;;;;;;37.51;9.64;97380.03;6294216;28;19921;-73
2023/04/30 06:06:51;;;;;;;;;;;;;;;38.34;9.16;97388.69;6295020;28;20735;-73
2023/04/30 06:09:57;;;;;;;;;;;;;;;37.95;9.33;97390.91;6295199;28;19920;-74
2023/04/30 06:13:01;;;;;;;;;;;;;;;37.45;9.81;97368.19;6294897;28;19920;-74
2023/04/30 06:16:05;;;;;;;;;;;;;;;38.16;9.33;97375.38;6294582;28;20019;-73
2023/04/30 06:19:06;;;;;;;;;;;;;;;38.97;8.95;97364.00;6293906;28;19927;-74
2023/04/30 06:22:13;;;;;;;;;;;;;;;39.32;8.74;97364.41;6294279;28;19931;-74
2023/04/30 06:25:18;;;;;;;;;;;;;;;39.43;8.48;97401.88;6294653;28;19985;-74
2023/04/30 06:28:22;;;;;;;;;;;;;;;38.65;8.83;97360.56;6294152;28;19927;-74
2023/04/30 06:31:25;;;;;;;;;;;;;;;38.26;9.16;97361.72;6294700;28;19921;-74
2023/04/30 06:34:29;;;;;;;;;;;;;;;38.33;8.95;97354.06;6293252;28;19938;-74
2023/04/30 06:37:36;;;;;;;;;;;;;;;37.78;8.91;97370.94;6293041;28;19920;-74
2023/04/30 06:40:39;;;;;;;;;;;;;;;38.12;9.30;97375.09;6293784;28;19924;-73
2023/04/30 06:43:46;;;;;;;;;;;;;;;38.61;9.06;97361.13;6294376;28;20023;-73
2023/04/30 06:46:47;;;;;;;;;;;;;;;39.28;8.47;97362.16;6293888;28;20313;-73
2023/04/30 06:49:50;;;;;;;;;;;;;;;39.03;8.40;97356.59;6293258;28;19920;-74
2023/04/30 06:52:54;;;;;;;;;;;;;;;38.71;8.82;97349.31;6294448;28;20009;-74
2023/04/30 06:55:57;;;;;;;;;;;;;;;39.20;8.32;97351.69;6294104;28;19975;-74
2023/04/30 06:59:00;;;;;;;;;;;;;;;38.92;8.57;97352.16;6293344;28;19920;-74
2023/04/30 07:02:02;;;;;;;;;;;;;;;39.21;8.38;97363.50;6292892;28;20013;-74
2023/04/30 07:05:06;;;;;;;;;;;;;;;38.68;8.96;97349.84;6294057;28;20022;-73
2023/04/30 07:08:10;;;;;;;;;;;;;;;38.39;9.12;97353.00;6293066;28;19962;-74
2023/04/30 07:11:16;;;;;;;;;;;;;;;39.19;8.92;97338.22;6294130;28;19920;-73
2023/04/30 07:14:20;;;;;;;;;;;;;;;39.28;8.64;97342.88;6294256;28;20386;-74
2023/04/30 07:17:26;;;;;;;;;;;;;;;38.85;8.71;97349.66;6294144;28;19948;-74
2023/04/30 07:20:32;;;;;;;;;;;;;;;38.33;9.57;97321.09;6294036;28;20331;-73
2023/04/30 07:23:33;;;;;;;;;;;;;;;38.56;9.33;97310.78;6293162;28;20421;-74
2023/04/30 07:26:41;;;;;;;;;;;;;;;38.88;8.79;97331.81;6293857;28;20376;-74
2023/04/30 07:29:42;;;;;;;;;;;;;;;38.61;9.30;97322.63;6293425;28;19920;-73
2023/04/30 07:32:46;;;;;;;;;;;;;;;39.07;8.93;97316.44;6293974;28;20026;-74
2023/04/30 07:35:47;;;;;;;;;;;;;;;39.22;8.88;97310.13;6295602;28;19920;-73
2023/04/30 07:38:48;;;;;;;;;;;;;;;39.47;8.99;97299.16;6298221;28;19927;-74
2023/04/30 07:41:52;;;;;;;;;;;;;;;40.15;8.71;97290.56;6298189;28;19920;-75
2023/04/30 07:44:56;;;;;;;;;;;;;;;41.10;8.03;97288.81;6297357;28;20047;-74
2023/04/30 07:47:58;;;;;;;;;;;;;;;41.27;8.04;97299.47;6297678;28;19974;-74
2023/04/30 07:51:03;;;;;;;;;;;;;;;40.74;8.24;97282.66;6279885;28;19920;-73
2023/04/30 07:54:07;;;;;;;;;;;;;;;40.30;8.27;97299.94;6297423;28;19928;-73
2023/04/30 07:57:08;;;;;;;;;;;;;;;39.06;8.88;97279.00;6297085;28;19927;-74
2023/04/30 08:00:10;;;;;;;;;;;;;;;37.80;9.90;97267.16;6297082;28;19997;-73
2023/04/30 08:03:13;;;;;;;;;;;;;;;37.68;9.87;97292.03;6297415;28;19993;-74
2023/04/30 08:06:16;;;;;;;;;;;;;;;37.18;10.51;97261.16;6297910;28;19921;-74
2023/04/30 08:09:19;;;;;;;;;;;;;;;36.80;10.63;97251.16;6296734;28;19946;-73
2023/04/30 08:12:25;;;;;;;;;;;;;;;38.23;9.63;97255.06;6297802;28;19921;-73
2023/04/30 08:15:29;;;;;;;;;;;;;;;38.70;9.62;97258.81;6297186;28;20292;-74
2023/04/30 08:18:32;;;;;;;;;;;;;;;38.62;9.32;97250.00;6297472;28;19920;-74
2023/04/30 08:21:36;;;;;;;;;;;;;;;37.90;9.95;97278.19;6297026;28;19920;-75
2023/04/30 08:24:39;;;;;;;;;;;;;;;37.51;10.11;97254.63;6297387;28;19920;-74
2023/04/30 08:27:40;;;;;;;;;;;;;;;37.70;9.91;97241.28;6297025;28;19924;-74
2023/04/30 08:30:46;;;;;;;;;;;;;;;39.09;9.59;97245.44;6297414;28;20302;-74
2023/04/30 08:33:50;;;;;;;;;;;;;;;39.13;9.53;97245.75;6297292;28;20340;-74
2023/04/30 08:36:53;;;;;;;;;;;;;;;39.69;9.26;97242.97;6297111;28;19970;-75
2023/04/30 08:39:57;;;;;;;;;;;;;;;38.73;9.75;97237.13;6297078;28;19982;-74
2023/04/30 08:43:10;;;;;;;;;;;;;;;38.86;9.70;97219.28;6297068;28;19920;-73
2023/04/30 08:46:12;;;;;;;;;;;;;;;38.34;9.85;97234.75;6296322;28;19920;-73
2023/04/30 08:49:13;;;;;;;;;;;;;;;39.07;9.67;97225.66;6295691;28;19920;-74
2023/04/30 08:52:18;;;;;;;;;;;;;;;38.89;9.43;97213.22;6296671;28;19928;-73
2023/04/30 08:55:21;;;;;;;;;;;;;;;38.70;9.59;97215.66;6296633;28;19936;-74
2023/04/30 08:58:24;;;;;;;;;;;;;;;38.47;9.77;97232.63;6295980;28;19920;-73
2023/04/30 09:01:29;;;;;;;;;;;;;;;38.49;10.05;97208.44;6296591;28;19920;-73
2023/04/30 09:04:30;;;;;;;;;;;;;;;38.58;10.01;97224.13;6295396;28;19939;-74
2023/04/30 09:07:33;;;;;;;;;;;;;;;38.10;10.38;97209.66;6295565;28;20019;-74
2023/04/30 09:10:39;;;;;;;;;;;;;;;37.48;10.39;97216.72;6296213;28;19946;-74
2023/04/30 09:13:43;;;;;;;;;;;;;;;37.23;11.04;97219.22;6296144;28;20404;-73
2023/04/30 09:16:49;;;;;;;;;;;;;;;36.95;11.01;97201.13;6295064;28;19943;-74
2023/04/30 09:19:50;;;;;;;;;;;;;;;37.17;11.04;97209.28;6295875;28;19920;-76
2023/04/30 09:23:04;;;;;;;;;;;;;;;37.12;10.59;97218.31;6296235;28;19920;-76
2023/04/30 09:26:18;;;;;;;;;;;;;;;36.29;11.30;97214.94;6296086;28;19943;-74
2023/04/30 09:29:19;;;;;;;;;;;;;;;36.02;11.88;97212.94;6295335;28;19924;-75
2023/04/30 09:32:24;;;;;;;;;;;;;;;36.08;11.83;97213.88;6296038;28;20405;-75
2023/04/30 09:35:31;;;;;;;;;;;;;;;35.95;11.80;97220.50;6295080;28;19920;-74
2023/04/30 09:38:34;;;;;;;;;;;;;;;36.94;11.31;97216.72;6295045;28;19978;-74
2023/04/30 09:41:38;;;;;;;;;;;;;;;37.99;10.38;97205.19;6295621;28;20011;-74
2023/04/30 09:44:42;;;;;;;;;;;;;;;37.50;10.84;97209.00;6294325;28;19921;-75
2023/04/30 09:47:45;;;;;;;;;;;;;;;37.79;10.77;97200.41;6295010;28;19920;-74
2023/04/30 09:50:49;;;;;;;;;;;;;;;37.41;10.97;97196.03;6295375;28;19920;-74
2023/04/30 09:53:51;;;;;;;;;;;;;;;37.46;10.82;97205.13;6294386;28;19924;-74
2023/04/30 09:56:57;;;;;;;;;;;;;;;37.19;11.34;97196.13;6294033;28;19927;-74
2023/04/30 10:00:01;;;;;;;;;;;;;;;36.68;10.90;97203.88;6295197;28;19920;-74
2023/04/30 10:03:11;;;;;;;;;;;;;;;36.20;11.36;97190.72;6294819;28;20430;-75
2023/04/30 10:06:14;;;;;;;;;;;;;;;36.29;11.20;97193.00;6294492;28;19920;-74
2023/04/30 10:09:18;;;;;;;;;;;;;;;35.64;11.61;97181.78;6292922;28;19920;-74
2023/04/30 10:12:23;;;;;;;;;;;;;;;35.50;11.75;97185.91;6295097;28;19924;-75
2023/04/30 10:15:25;;;;;;;;;;;;;;;35.56;11.78;97175.88;6293764;28;19928;-74
2023/04/30 10:18:33;;;;;;;;;;;;;;;34.76;12.26;97165.00;6295108;28;20017;-74
2023/04/30 10:21:39;;;;;;;;;;;;;;;35.00;12.08;97164.88;6295206;28;19920;-75
2023/04/30 10:24:45;;;;;;;;;;;;;;;35.26;11.95;97175.16;6294778;28;20381;-74
2023/04/30 10:27:50;;;;;;;;;;;;;;;34.43;12.58;97172.06;6294694;28;19920;-74
2023/04/30 10:30:54;;;;;;;;;;;;;;;35.13;12.09;97159.06;6293912;28;20011;-75
2023/04/30 10:34:05;;;;;;;;;;;;;;;35.79;11.73;97183.06;6294537;28;19960;-74
2023/04/30 10:37:10;;;;;;;;;;;;;;;35.18;11.99;97161.91;6294564;28;19920;-74
2023/04/30 10:40:17;;;;;;;;;;;;;;;34.21;12.64;97157.44;6294730;28;20054;-73
2023/04/30 10:43:20;;;;;;;;;;;;;;;34.08;12.88;97153.06;6294595;28;19924;-74
2023/04/30 10:46:27;;;;;;;;;;;;;;;33.65;13.20;97150.78;6294665;28;19920;-73
2023/04/30 10:49:28;;;;;;;;;;;;;;;33.34;13.22;97136.44;6294065;28;19921;-73
2023/04/30 10:52:31;;;;;;;;;;;;;;;33.01;13.76;97140.59;6294433;28;19927;-74
2023/04/30 10:55:44;;;;;;;;;;;;;;;32.81;13.75;97130.00;6293981;28;19921;-74
2023/04/30 10:58:46;;;;;;;;;;;;;;;32.84;13.83;97121.34;6275627;28;19920;-74
2023/04/30 11:01:56;;;;;;;;;;;;;;;32.86;13.79;97124.66;6293412;28;20279;-73
2023/04/30 11:05:06;;;;;;;;;;;;;;;32.75;13.72;97117.28;6294437;28;19925;-73
2023/04/30 11:08:10;;;;;;;;;;;;;;;32.72;14.25;97127.84;6294518;28;19928;-73
2023/04/30 11:11:19;;;;;;;;;;;;;;;32.36;14.08;97113.28;6299235;28;19919;-73
2023/04/30 11:14:21;;;;;;;;;;;;;;;32.41;13.81;97116.13;6299008;28;20375;-74
2023/04/30 11:17:23;;;;;;;;;;;;;;;32.01;14.36;97100.38;6298141;28;19990;-75
2023/04/30 11:20:26;;;;;;;;;;;;;;;32.31;13.87;97105.81;6298294;28;19928;-74
2023/04/30 11:23:27;;;;;;;;;;;;;;;32.12;13.90;97098.75;6298097;28;19927;-75
2023/04/30 11:26:28;;;;;;;;;;;;;;;31.72;14.38;97089.19;6298962;28;19920;-73
2023/04/30 11:29:32;;;;;;;;;;;;;;;31.64;14.86;97089.50;6298245;28;20030;-75
2023/04/30 11:32:34;;;;;;;;;;;;;;;31.30;14.67;97093.66;6298208;28;19920;-74
2023/04/30 11:35:38;;;;;;;;;;;;;;;30.89;15.30;97075.28;6297733;28;19927;-74
2023/04/30 11:38:42;;;;;;;;;;;;;;;30.53;15.36;97082.22;6298602;28;20073;-72
2023/04/30 11:41:46;;;;;;;;;;;;;;;29.98;15.88;97078.19;6298398;28;19921;-74
2023/04/30 11:44:51;;;;;;;;;;;;;;;29.73;16.36;97069.97;6280211;28;20419;-73
2023/04/30 11:47:53;;;;;;;;;;;;;;;29.34;16.45;97062.81;6297527;28;19927;-74
2023/04/30 11:50:57;;;;;;;;;;;;;;;29.33;16.39;97066.56;6297602;28;19926;-73
2023/04/30 11:54:00;;;;;;;;;;;;;;;29.28;16.64;97069.91;6297540;28;19952;-75
2023/04/30 11:57:03;;;;;;;;;;;;;;;29.61;16.19;97062.69;6297608;28;20070;-74
2023/04/30 12:00:09;;;;;;;;;;;;;;;29.30;16.64;97062.41;6280045;28;20305;-74
2023/04/30 12:03:13;;;;;;;;;;;;;;;29.01;16.89;97054.72;6298472;28;20301;-74
2023/04/30 12:06:24;;;;;;;;;;;;;;;28.80;17.05;97053.09;6296731;28;19927;-74
2023/04/30 12:09:28;;;;;;;;;;;;;;;28.33;17.49;97044.13;6297907;28;20328;-75
2023/04/30 12:12:35;;;;;;;;;;;;;;;28.24;17.72;97045.38;6297590;28;19950;-75
2023/04/30 12:15:39;;;;;;;;;;;;;;;28.11;17.97;97047.06;6297412;28;19920;-74
2023/04/30 12:18:41;;;;;;;;;;;;;;;28.23;17.60;97038.31;6296491;28;19920;-76
2023/04/30 12:21:47;;;;;;;;;;;;;;;28.03;17.80;97033.72;6278880;28;20305;-74
2023/04/30 12:24:48;;;;;;;;;;;;;;;28.30;17.75;97044.56;6296719;28;20329;-74
2023/04/30 12:27:53;;;;;;;;;;;;;;;28.06;18.10;97022.47;6297323;28;19920;-74
2023/04/30 12:30:56;;;;;;;;;;;;;;;27.86;18.03;97027.03;6297177;28;19946;-74
2023/04/30 12:33:57;;;;;;;;;;;;;;;27.76;18.27;97017.41;6296189;28;19927;-73
2023/04/30 12:36:58;;;;;;;;;;;;;;;27.99;18.02;97006.22;6295913;28;19978;-74
2023/04/30 12:40:03;;;;;;;;;;;;;;;27.98;18.05;97026.22;6278549;28;20004;-75
2023/04/30 12:43:07;;;;;;;;;;;;;;;27.78;18.15;97030.72;6297079;28;19921;-74
2023/04/30 12:46:24;;;;;;;;;;;;;;;27.44;18.56;97028.97;6296519;28;19920;-74
2023/04/30 12:49:33;;;;;;;;;;;;;;;27.34;18.92;97033.91;6296761;28;19920;-75
2023/04/30 12:52:35;;;;;;;;;;;;;;;26.87;18.97;97018.28;6278580;28;20423;-74
2023/04/30 12:55:38;;;;;;;;;;;;;;;26.65;19.25;97019.38;6296131;28;19920;-74
2023/04/30 12:58:39;;;;;;;;;;;;;;;26.64;19.42;97012.31;6295522;28;19920;-76
2023/04/30 13:01:43;;;;;;;;;;;;;;;26.47;19.37;97016.28;6296294;28;19921;-75
2023/04/30 13:04:48;;;;;;;;;;;;;;;25.88;19.92;97010.22;6295007;28;19929;-75
2023/04/30 13:07:54;;;;;;;;;;;;;;;25.98;20.12;97002.59;6296493;28;19920;-75
2023/04/30 13:10:57;;;;;;;;;;;;;;;25.95;20.05;96991.38;6296245;28;19920;-75
2023/04/30 13:14:03;;;;;;;;;;;;;;;25.81;20.62;97011.13;6296047;28;19920;-74
2023/04/30 13:17:08;;;;;;;;;;;;;;;25.44;20.53;97005.75;6296081;28;19921;-73
2023/04/30 13:20:09;;;;;;;;;;;;;;;25.30;20.84;97009.31;6294498;28;19985;-74
2023/04/30 13:23:11;;;;;;;;;;;;;;;25.27;21.04;96993.53;6294758;28;19920;-74
2023/04/30 13:26:15;;;;;;;;;;;;;;;25.25;21.15;96984.81;6295965;28;20282;-75
2023/04/30 13:29:19;;;;;;;;;;;;;;;25.24;21.12;97005.53;6295487;28;19927;-75
2023/04/30 13:32:20;;;;;;;;;;;;;;;25.13;21.21;97005.16;6293702;28;19920;-74
2023/04/30 13:35:24;;;;;;;;;;;;;;;25.01;21.31;96978.72;6295745;28;19920;-74
2023/04/30 13:38:27;;;;;;;;;;;;;;;24.82;21.48;96990.03;6295639;28;19921;-74
2023/04/30 13:41:31;;;;;;;;;;;;;;;24.76;21.92;96996.16;6295388;28;19920;-75
2023/04/30 13:44:35;;;;;;;;;;;;;;;24.93;21.73;96980.66;6295408;28;20296;-74
2023/04/30 13:47:37;;;;;;;;;;;;;;;24.96;21.42;96973.03;6295222;28;19916;-74
2023/04/30 13:50:39;;;;;;;;;;;;;;;24.94;21.81;96983.19;6277071;28;20011;-73
2023/04/30 13:53:42;;;;;;;;;;;;;;;24.74;21.92;96977.53;6295243;28;19995;-74
2023/04/30 13:56:44;;;;;;;;;;;;;;;24.62;21.89;96973.63;6294706;28;19929;-73
2023/04/30 13:59:48;;;;;;;;;;;;;;;24.36;22.17;96984.81;6295011;28;20003;-74
2023/04/30 14:02:54;;;;;;;;;;;;;;;24.12;22.62;96970.59;6295404;28;20019;-73
2023/04/30 14:05:55;;;;;;;;;;;;;;;23.87;23.09;96969.97;6294560;28;19927;-74
2023/04/30 14:08:58;;;;;;;;;;;;;;;23.94;23.18;96986.19;6294786;28;19920;-73
2023/04/30 14:12:01;;;;;;;;;;;;;;;23.91;23.14;96960.50;6295225;28;20195;-73
2023/04/30 14:15:05;;;;;;;;;;;;;;;23.74;23.38;96964.34;6294721;28;19920;-74
2023/04/30 14:18:08;;;;;;;;;;;;;;;23.84;23.30;96966.81;6294751;28;20408;-73
2023/04/30 14:21:10;;;;;;;;;;;;;;;23.59;23.46;96966.94;6294728;28;19931;-74
2023/04/30 14:24:11;;;;;;;;;;;;;;;23.57;23.59;96963.59;6293640;28;19935;-74
2023/04/30 14:27:17;;;;;;;;;;;;;;;23.56;23.65;96967.31;6294821;28;20010;-73
2023/04/30 14:30:20;;;;;;;;;;;;;;;23.28;23.85;96975.88;6294782;28;19988;-74
2023/04/30 14:33:23;;;;;;;;;;;;;;;23.31;23.89;96975.50;6293713;28;20048;-74
2023/04/30 14:36:27;;;;;;;;;;;;;;;23.23;23.99;96985.47;6294734;28;19946;-74
2023/04/30 14:39:29;;;;;;;;;;;;;;;23.02;24.37;96986.09;6294516;28;19943;-74
2023/04/30 14:42:30;;;;;;;;;;;;;;;23.16;24.09;96985.34;6293701;28;19946;-73
2023/04/30 14:45:32;;;;;;;;;;;;;;;22.86;24.55;96979.72;6298339;28;19920;-75
2023/04/30 14:48:33;;;;;;;;;;;;;;;22.84;24.55;96973.72;6299146;28;20058;-74
2023/04/30 14:51:34;;;;;;;;;;;;;;;22.55;24.84;96968.13;6298621;28;19920;-73
2023/04/30 14:54:38;;;;;;;;;;;;;;;22.46;24.88;96969.16;6299107;28;19931;-74
2023/04/30 14:57:41;;;;;;;;;;;;;;;22.44;25.16;96976.53;6299622;28;19920;-73
2023/04/30 15:00:47;;;;;;;;;;;;;;;22.18;25.21;96974.91;6298366;28;19927;-74
2023/04/30 15:03:52;;;;;;;;;;;;;;;22.00;25.54;96974.22;6299050;28;19920;-73
2023/04/30 15:06:59;;;;;;;;;;;;;;;21.83;25.84;96990.31;6299186;28;19928;-74
2023/04/30 15:10:00;;;;;;;;;;;;;;;21.81;25.80;96976.22;6299234;28;19920;-74
2023/04/30 15:13:04;;;;;;;;;;;;;;;21.75;25.86;96975.06;6299124;28;20301;-74
2023/04/30 15:16:06;;;;;;;;;;;;;;;21.43;26.30;96978.56;6298291;28;19920;-74
2023/04/30 15:19:09;;;;;;;;;;;;;;;21.23;26.30;96991.34;6298796;28;19920;-75
2023/04/30 15:22:12;;;;;;;;;;;;;;;21.20;26.43;96988.16;6297957;28;20286;-75
2023/04/30 15:25:16;;;;;;;;;;;;;;;21.28;26.51;96989.00;6298082;28;19920;-75
2023/04/30 15:28:23;;;;;;;;;;;;;;;21.02;26.85;96981.06;6298557;28;20007;-74
2023/04/30 15:31:26;;;;;;;;;;;;;;;20.80;26.91;96987.84;6298302;28;19920;-73
2023/04/30 15:34:30;;;;;;;;;;;;;;;20.73;26.97;97002.03;6297880;28;20293;-75
2023/04/30 15:37:33;;;;;;;;;;;;;;;20.84;27.20;96988.38;6297802;28;19928;-76
2023/04/30 15:40:34;;;;;;;;;;;;;;;20.50;27.39;96994.53;6297820;28;20317;-74
2023/04/30 15:43:38;;;;;;;;;;;;;;;20.46;27.61;96995.81;6297595;28;20314;-74
2023/04/30 15:46:42;;;;;;;;;;;;;;;20.45;27.61;97004.84;6298150;28;19921;-74
2023/04/30 15:49:43;;;;;;;;;;;;;;;20.04;27.74;97009.94;6298348;28;19926;-75
2023/04/30 15:52:44;;;;;;;;;;;;;;;19.96;28.22;96994.69;6297186;28;19920;-75
2023/04/30 15:55:47;;;;;;;;;;;;;;;19.97;28.19;97006.19;6296289;28;19985;-74
2023/04/30 15:58:49;;;;;;;;;;;;;;;19.75;28.29;97004.84;6297212;28;20385;-75
2023/04/30 16:01:50;;;;;;;;;;;;;;;19.58;28.76;97009.16;6297640;28;19943;-74